Time;durP1;ratioP1;P1;durP2;ratioP2;P2;SDS_P1;SDS_P2;PMS_P1;PMS_P2;Temp;Humidity;BMP_temperature;BMP_pressure;BME280_temperature;BME280_humidity;BME280_pressure;Samples;Min_cycle;Max_cycle;Signal;HPM_P1;HPM_P2
2022/10/28 00:01:03;;;;;;;13.48;8.38;;;14.40;99.90;;;;;;4981990;28;20053;-58
2022/10/28 00:03:29;;;;;;;17.20;8.77;;;14.30;99.90;;;;;;4979951;28;20054;-59
2022/10/28 00:06:04;;;;;;;15.63;8.90;;;14.30;99.90;;;;;;4981734;28;20042;-58
2022/10/28 00:08:30;;;;;;;17.90;8.88;;;14.30;99.90;;;;;;4980599;28;20055;-58
2022/10/28 00:11:04;;;;;;;15.48;8.40;;;14.30;99.90;;;;;;4980613;28;20039;-59
2022/10/28 00:13:30;;;;;;;15.15;8.43;;;14.60;99.90;;;;;;4981710;28;20051;-59
2022/10/28 00:16:03;;;;;;;16.77;9.65;;;14.60;99.90;;;;;;4979839;28;20517;-58
2022/10/28 00:18:29;;;;;;;16.92;9.35;;;14.40;99.90;;;;;;4981943;28;20039;-59
2022/10/28 00:21:00;;;;;;;18.08;9.55;;;14.70;99.90;;;;;;4979900;28;20043;-57
2022/10/28 00:23:25;;;;;;;17.08;9.23;;;14.50;99.90;;;;;;4995662;28;20188;-57
2022/10/28 00:25:51;;;;;;;17.40;9.45;;;14.50;99.90;;;;;;4980951;28;20047;-57
2022/10/28 00:28:17;;;;;;;14.55;9.60;;;14.70;99.90;;;;;;4962648;28;20577;-57
2022/10/28 00:30:42;;;;;;;14.68;10.38;;;14.60;99.90;;;;;;4981115;28;20089;-57
2022/10/28 00:33:08;;;;;;;19.27;9.77;;;14.50;99.90;;;;;;4961900;28;20059;-57
2022/10/28 00:35:33;;;;;;;19.63;10.50;;;14.70;99.90;;;;;;4979429;28;20051;-57
2022/10/28 00:37:59;;;;;;;17.95;9.10;;;14.50;99.90;;;;;;4979463;28;20094;-57
2022/10/28 00:40:25;;;;;;;17.65;10.63;;;14.80;99.90;;;;;;4981010;28;20054;-57
2022/10/28 00:42:50;;;;;;;19.23;10.00;;;14.50;99.90;;;;;;4980485;28;20049;-57
2022/10/28 00:45:16;;;;;;;17.75;10.15;;;14.50;99.90;;;;;;4980139;28;20051;-56
2022/10/28 00:47:44;;;;;;;21.60;12.20;;;14.60;99.90;;;;;;4984912;28;20062;-57
2022/10/28 00:50:34;;;;;;;16.63;10.98;;;14.50;99.90;;;;;;4998914;28;20046;-57
2022/10/28 00:53:07;;;;;;;18.40;11.63;;;14.70;99.90;;;;;;5000345;28;20123;-57
2022/10/28 00:55:34;;;;;;;22.00;11.85;;;14.70;99.90;;;;;;4999637;28;20046;-56
2022/10/28 00:58:01;;;;;;;21.05;12.75;;;14.70;99.90;;;;;;4999561;28;20046;-57
2022/10/28 01:00:27;;;;;;;21.40;12.00;;;14.90;99.90;;;;;;5000029;28;20038;-57
2022/10/28 01:02:54;;;;;;;18.85;11.80;;;14.60;99.90;;;;;;4998458;28;20529;-57
2022/10/28 01:05:24;;;;;;;24.92;12.40;;;14.70;99.90;;;;;;5000431;28;20042;-57
2022/10/28 01:07:51;;;;;;;20.17;11.50;;;14.40;99.90;;;;;;4998831;28;20046;-57
2022/10/28 01:10:18;;;;;;;18.20;11.45;;;14.70;99.90;;;;;;5000350;28;20559;-57
2022/10/28 01:12:49;;;;;;;19.98;11.50;;;14.50;99.90;;;;;;4999266;28;20054;-56
2022/10/28 01:15:36;;;;;;;17.75;12.05;;;14.50;99.90;;;;;;4999069;28;20050;-57
2022/10/28 01:18:33;;;;;;;19.90;11.60;;;14.40;99.90;;;;;;5000227;28;20050;-57
2022/10/28 01:21:09;;;;;;;19.52;11.18;;;14.50;99.90;;;;;;4998584;28;20511;-57
2022/10/28 01:23:47;;;;;;;19.48;10.73;;;14.30;99.90;;;;;;4999340;28;20058;-56
2022/10/28 01:26:19;;;;;;;16.48;10.32;;;14.40;99.90;;;;;;4999844;28;20407;-57
2022/10/28 01:29:12;;;;;;;17.80;10.35;;;14.50;99.90;;;;;;4998350;28;20054;-57
2022/10/28 01:31:53;;;;;;;21.23;10.70;;;14.60;99.90;;;;;;4978643;28;20062;-57
2022/10/28 01:34:40;;;;;;;21.35;10.57;;;14.30;99.90;;;;;;4979457;28;20114;-57
2022/10/28 01:37:33;;;;;;;18.48;10.65;;;14.50;99.90;;;;;;4979141;28;20106;-57
2022/10/28 01:40:01;;;;;;;17.75;10.35;;;14.30;99.90;;;;;;4980523;28;20038;-57
2022/10/28 01:42:31;;;;;;;18.55;10.88;;;14.30;99.90;;;;;;4938883;29;20083;-56
2022/10/28 01:45:21;;;;;;;18.05;10.40;;;14.50;99.90;;;;;;4958483;28;20043;-57
2022/10/28 01:48:01;;;;;;;18.98;10.75;;;14.30;99.90;;;;;;4984019;28;20061;-56
2022/10/28 01:51:12;;;;;;;15.95;10.35;;;14.40;99.90;;;;;;4997083;28;20054;-58
2022/10/28 01:53:43;;;;;;;19.50;10.88;;;14.20;99.90;;;;;;4961281;29;20092;-57
2022/10/28 01:56:16;;;;;;;18.27;10.00;;;14.40;99.90;;;;;;4981649;28;20054;-56
2022/10/28 01:58:44;;;;;;;18.52;10.43;;;14.20;99.90;;;;;;4982129;28;20042;-58
2022/10/28 02:01:10;;;;;;;17.13;10.15;;;14.40;99.90;;;;;;4984209;28;20047;-56
2022/10/28 02:03:36;;;;;;;17.25;10.73;;;14.40;99.90;;;;;;4981814;28;20082;-57
2022/10/28 02:06:05;;;;;;;18.67;10.68;;;14.20;99.90;;;;;;4983973;28;20110;-56
2022/10/28 02:08:42;;;;;;;14.63;10.02;;;14.10;99.90;;;;;;4965358;28;20043;-57
2022/10/28 02:11:20;;;;;;;16.95;10.48;;;14.30;99.90;;;;;;4982615;28;20046;-57
2022/10/28 02:14:11;;;;;;;17.27;10.77;;;14.10;99.90;;;;;;4983750;28;20050;-56
2022/10/28 02:16:50;;;;;;;16.35;9.50;;;14.40;99.90;;;;;;4982324;28;20040;-57
2022/10/28 02:19:28;;;;;;;16.92;10.30;;;14.10;99.90;;;;;;4983045;28;20097;-57
2022/10/28 02:22:18;;;;;;;19.45;10.43;;;14.10;99.90;;;;;;4983382;28;20043;-57
2022/10/28 02:25:05;;;;;;;19.42;11.27;;;14.40;99.90;;;;;;4981700;28;20114;-56
2022/10/28 02:27:43;;;;;;;19.90;10.13;;;14.10;99.90;;;;;;4983297;28;20058;-57
2022/10/28 02:30:13;;;;;;;17.58;11.65;;;14.30;99.90;;;;;;4983134;28;20082;-56
2022/10/28 02:32:43;;;;;;;18.48;10.73;;;14.00;99.90;;;;;;4993897;28;20057;-57
2022/10/28 02:35:20;;;;;;;17.77;10.48;;;14.00;99.90;;;;;;5003177;28;20051;-57
2022/10/28 02:37:50;;;;;;;16.92;10.90;;;14.10;99.90;;;;;;5001115;28;20507;-57
2022/10/28 02:40:22;;;;;;;20.65;11.35;;;14.20;99.90;;;;;;5000805;28;20384;-57
2022/10/28 02:43:06;;;;;;;17.58;10.82;;;14.00;99.90;;;;;;4982567;28;20046;-56
2022/10/28 02:45:43;;;;;;;16.50;10.05;;;13.90;99.90;;;;;;4981917;28;20047;-56
2022/10/28 02:48:25;;;;;;;21.20;10.60;;;14.10;99.90;;;;;;4983354;28;20074;-57
2022/10/28 02:50:59;;;;;;;21.90;10.83;;;14.20;99.90;;;;;;4981419;28;20065;-56
2022/10/28 02:53:37;;;;;;;20.00;10.32;;;14.20;99.90;;;;;;4982463;28;20077;-57
2022/10/28 02:56:05;;;;;;;20.50;10.63;;;13.90;99.90;;;;;;4982828;28;20078;-57
2022/10/28 02:58:39;;;;;;;17.73;10.90;;;13.90;99.90;;;;;;4980521;28;20082;-57
2022/10/28 03:01:05;;;;;;;19.48;10.85;;;14.10;99.90;;;;;;4983160;28;20070;-57
2022/10/28 03:03:31;;;;;;;17.73;10.82;;;14.10;99.90;;;;;;4981143;28;20077;-57
2022/10/28 03:05:56;;;;;;;16.35;10.50;;;13.90;99.90;;;;;;4965132;28;20046;-56
2022/10/28 03:08:24;;;;;;;17.77;11.55;;;13.90;99.90;;;;;;4981975;28;20054;-57
2022/10/28 03:10:50;;;;;;;18.50;11.50;;;13.80;99.90;;;;;;4964308;28;20046;-57
2022/10/28 03:13:16;;;;;;;19.08;11.13;;;14.00;99.90;;;;;;4982642;28;20081;-56
2022/10/28 03:15:41;;;;;;;20.88;11.43;;;14.10;99.90;;;;;;4981165;28;20130;-57
2022/10/28 03:18:07;;;;;;;18.58;11.05;;;14.00;99.90;;;;;;4982769;28;20412;-57
2022/10/28 03:20:33;;;;;;;21.55;11.80;;;14.00;99.90;;;;;;4980319;28;20070;-56
2022/10/28 03:22:58;;;;;;;16.17;10.48;;;13.80;99.90;;;;;;4982992;28;20035;-57
2022/10/28 03:25:24;;;;;;;19.58;10.23;;;13.80;99.90;;;;;;4981320;28;20046;-57
2022/10/28 03:27:50;;;;;;;20.83;11.32;;;14.00;99.90;;;;;;4982042;28;20458;-57
2022/10/28 03:30:17;;;;;;;19.10;11.73;;;13.80;99.90;;;;;;4981973;28;20105;-57
2022/10/28 03:32:43;;;;;;;23.73;12.80;;;14.10;99.90;;;;;;4980755;28;20055;-58
2022/10/28 03:35:09;;;;;;;20.10;12.65;;;14.10;99.90;;;;;;4982132;28;20053;-58
2022/10/28 03:37:35;;;;;;;19.50;12.07;;;13.90;99.90;;;;;;4980553;28;20051;-57
2022/10/28 03:40:01;;;;;;;23.23;13.07;;;13.80;99.90;;;;;;4982355;28;20054;-57
2022/10/28 03:42:28;;;;;;;23.42;13.88;;;14.00;99.90;;;;;;4980938;28;20043;-57
2022/10/28 03:44:53;;;;;;;18.85;12.68;;;13.80;99.90;;;;;;4981605;28;20106;-57
2022/10/28 03:47:19;;;;;;;18.98;12.65;;;14.10;99.90;;;;;;4981891;28;20050;-57
2022/10/28 03:49:45;;;;;;;22.92;12.90;;;13.70;99.90;;;;;;4980589;28;20046;-57
2022/10/28 03:52:10;;;;;;;21.00;13.02;;;13.90;99.90;;;;;;4982523;28;20047;-57
2022/10/28 03:54:36;;;;;;;19.98;12.75;;;13.90;99.90;;;;;;4962687;28;20066;-57
2022/10/28 03:57:01;;;;;;;21.33;13.05;;;13.70;99.90;;;;;;4982327;28;20061;-57
2022/10/28 03:59:27;;;;;;;18.75;13.18;;;14.00;99.90;;;;;;4980608;28;20066;-57
2022/10/28 04:01:53;;;;;;;21.00;13.95;;;13.70;99.90;;;;;;4981360;28;20046;-57
2022/10/28 04:04:18;;;;;;;21.05;13.23;;;14.00;99.90;;;;;;4963707;28;20046;-57
2022/10/28 04:06:44;;;;;;;21.95;14.48;;;13.70;99.90;;;;;;4979225;28;20146;-57
2022/10/28 04:09:09;;;;;;;24.67;15.45;;;13.90;99.90;;;;;;4964134;28;20426;-58
2022/10/28 04:11:35;;;;;;;23.35;14.27;;;13.70;99.90;;;;;;4980002;28;20129;-58
2022/10/28 04:14:01;;;;;;;20.35;13.30;;;13.80;99.90;;;;;;4981908;28;20444;-57
2022/10/28 04:16:26;;;;;;;21.17;14.18;;;13.90;99.90;;;;;;4979854;28;20043;-57
2022/10/28 04:18:52;;;;;;;21.80;13.98;;;13.70;99.90;;;;;;4981314;28;20053;-57
2022/10/28 04:21:18;;;;;;;19.40;13.85;;;13.70;99.90;;;;;;4980426;28;20062;-57
2022/10/28 04:23:43;;;;;;;21.83;14.32;;;13.80;99.90;;;;;;4980369;28;20043;-57
2022/10/28 04:26:09;;;;;;;20.80;13.60;;;13.60;99.90;;;;;;4981210;28;20083;-57
2022/10/28 04:28:34;;;;;;;23.60;15.52;;;13.60;99.90;;;;;;4979549;28;20043;-57
2022/10/28 04:31:01;;;;;;;23.23;15.30;;;13.80;99.90;;;;;;4981348;28;20098;-58
2022/10/28 04:33:27;;;;;;;20.73;14.57;;;13.70;99.90;;;;;;4978799;28;20050;-58
2022/10/28 04:35:53;;;;;;;24.88;14.70;;;13.80;99.90;;;;;;4981061;28;20117;-57
2022/10/28 04:38:19;;;;;;;22.63;14.68;;;13.80;99.90;;;;;;4980015;28;20450;-57
2022/10/28 04:40:48;;;;;;;22.17;14.00;;;13.70;99.90;;;;;;4979942;28;20047;-57
2022/10/28 04:43:14;;;;;;;20.55;14.40;;;13.60;99.90;;;;;;4980902;28;20122;-57
2022/10/28 04:45:40;;;;;;;19.67;13.88;;;13.70;99.90;;;;;;4994480;28;20046;-57
2022/10/28 04:48:08;;;;;;;24.13;15.35;;;13.50;99.90;;;;;;4980928;28;20046;-58
2022/10/28 04:50:34;;;;;;;24.45;15.07;;;13.50;99.90;;;;;;4978746;28;20415;-57
2022/10/28 04:53:00;;;;;;;25.27;15.85;;;13.60;99.90;;;;;;4963236;28;20652;-57
2022/10/28 04:55:25;;;;;;;25.95;14.82;;;13.70;99.90;;;;;;4979719;28;20561;-57
2022/10/28 04:57:56;;;;;;;23.08;14.35;;;13.60;99.90;;;;;;4980223;28;20046;-58
2022/10/28 05:00:22;;;;;;;25.70;16.33;;;13.50;99.90;;;;;;4980445;28;20045;-57
2022/10/28 05:02:48;;;;;;;22.00;14.02;;;13.60;99.90;;;;;;4978998;28;20113;-57
2022/10/28 05:05:14;;;;;;;27.70;15.77;;;13.50;99.90;;;;;;4981045;28;20093;-57
2022/10/28 05:07:40;;;;;;;26.40;14.95;;;13.60;99.90;;;;;;4978910;28;20049;-57
2022/10/28 05:10:06;;;;;;;25.00;16.15;;;13.60;99.90;;;;;;4980649;28;20043;-57
2022/10/28 05:12:31;;;;;;;27.25;16.00;;;13.50;99.90;;;;;;4961943;28;20049;-57
2022/10/28 05:14:57;;;;;;;28.27;17.00;;;13.40;99.90;;;;;;4979962;28;20070;-58
2022/10/28 05:17:22;;;;;;;22.33;16.27;;;13.50;99.90;;;;;;4994934;28;20074;-57
2022/10/28 05:19:48;;;;;;;29.40;17.23;;;13.60;99.90;;;;;;4979068;28;20451;-57
2022/10/28 05:22:14;;;;;;;25.65;16.73;;;13.30;99.90;;;;;;4975261;28;20696;-57
2022/10/28 05:24:39;;;;;;;21.40;15.02;;;13.50;99.90;;;;;;4975117;28;20050;-57
2022/10/28 05:27:05;;;;;;;26.83;16.27;;;13.60;99.90;;;;;;4976714;28;20610;-57
2022/10/28 05:29:31;;;;;;;28.73;17.80;;;13.50;99.90;;;;;;4957802;28;20055;-57
2022/10/28 05:31:56;;;;;;;31.83;17.77;;;13.40;99.90;;;;;;4975362;28;20047;-57
2022/10/28 05:34:22;;;;;;;27.40;16.70;;;13.50;99.90;;;;;;4976299;28;20058;-57
2022/10/28 05:36:49;;;;;;;29.17;17.33;;;13.50;99.90;;;;;;4975271;28;20051;-57
2022/10/28 05:39:16;;;;;;;33.90;17.75;;;13.20;99.90;;;;;;4959408;28;20050;-57
2022/10/28 05:41:44;;;;;;;26.25;16.92;;;13.30;99.90;;;;;;4975589;28;20110;-58
2022/10/28 05:44:10;;;;;;;31.50;17.33;;;13.30;99.90;;;;;;4977219;28;20066;-58
2022/10/28 05:46:35;;;;;;;26.00;17.33;;;13.30;99.90;;;;;;4975870;28;20053;-57
2022/10/28 05:49:01;;;;;;;26.15;17.42;;;13.40;99.90;;;;;;4977029;28;20046;-57
2022/10/28 05:51:26;;;;;;;28.95;16.63;;;13.50;99.90;;;;;;4976356;28;20109;-57
2022/10/28 05:53:53;;;;;;;25.25;16.63;;;13.50;99.90;;;;;;4975445;28;20103;-57
2022/10/28 05:56:19;;;;;;;31.15;17.88;;;13.50;99.90;;;;;;4961212;28;20038;-58
2022/10/28 05:58:44;;;;;;;29.27;17.25;;;13.30;99.90;;;;;;4986255;28;20126;-57
2022/10/28 06:01:10;;;;;;;25.42;16.45;;;13.30;99.90;;;;;;4975875;28;20043;-57
2022/10/28 06:03:36;;;;;;;28.67;17.27;;;13.50;99.90;;;;;;4974070;28;20058;-57
2022/10/28 06:06:02;;;;;;;28.55;17.05;;;13.30;99.90;;;;;;4972659;28;20526;-56
2022/10/28 06:08:28;;;;;;;24.40;16.60;;;13.20;99.90;;;;;;4974698;28;20043;-57
2022/10/28 06:10:54;;;;;;;27.15;17.10;;;13.50;99.90;;;;;;4975287;28;20110;-57
2022/10/28 06:13:20;;;;;;;30.42;16.80;;;13.50;99.90;;;;;;4975786;28;20049;-56
2022/10/28 06:16:04;;;;;;;29.02;17.48;;;13.20;99.90;;;;;;4974768;28;20054;-57
2022/10/28 06:18:29;;;;;;;25.88;16.65;;;13.50;99.90;;;;;;4976529;28;20085;-57
2022/10/28 06:20:57;;;;;;;24.83;16.88;;;13.20;99.90;;;;;;4973626;28;20523;-57
2022/10/28 06:23:24;;;;;;;29.98;17.27;;;13.40;99.90;;;;;;4975309;28;20190;-57
2022/10/28 06:25:50;;;;;;;27.40;16.85;;;13.40;99.90;;;;;;4975886;28;20761;-57
2022/10/28 06:28:16;;;;;;;26.88;17.50;;;13.10;99.90;;;;;;4957468;28;20074;-57
2022/10/28 06:30:42;;;;;;;29.92;16.90;;;13.30;99.90;;;;;;4976260;28;20034;-57
2022/10/28 06:33:08;;;;;;;28.10;17.17;;;13.30;99.90;;;;;;4974946;28;20567;-56
2022/10/28 06:35:33;;;;;;;28.60;17.33;;;13.20;99.90;;;;;;4962469;28;20067;-56
2022/10/28 06:37:59;;;;;;;27.83;16.52;;;13.40;99.90;;;;;;4978347;28;20047;-57
2022/10/28 06:40:26;;;;;;;25.50;15.43;;;13.10;99.90;;;;;;4976712;28;20057;-57
2022/10/28 06:43:02;;;;;;;28.05;17.30;;;13.20;99.90;;;;;;4961594;28;20063;-57
2022/10/28 06:45:30;;;;;;;25.65;16.27;;;13.20;99.90;;;;;;4977416;28;20062;-57
2022/10/28 06:48:00;;;;;;;23.95;15.63;;;13.40;99.90;;;;;;4979368;28;20047;-56
2022/10/28 06:50:27;;;;;;;26.08;15.63;;;13.20;99.90;;;;;;4977732;28;20042;-57
2022/10/28 06:52:56;;;;;;;27.83;15.20;;;13.30;99.90;;;;;;4979349;28;20069;-57
2022/10/28 06:55:22;;;;;;;28.67;15.70;;;13.30;99.90;;;;;;4984207;28;20069;-57
2022/10/28 06:57:48;;;;;;;26.13;15.70;;;13.20;99.90;;;;;;4997403;28;20117;-58
2022/10/28 07:00:14;;;;;;;27.50;16.55;;;13.50;99.90;;;;;;4996675;28;20042;-58
2022/10/28 07:02:40;;;;;;;23.27;15.43;;;13.20;99.90;;;;;;4977277;28;20078;-58
2022/10/28 07:05:07;;;;;;;24.83;15.68;;;13.60;99.90;;;;;;4979582;28;20043;-59
2022/10/28 07:07:36;;;;;;;28.75;15.27;;;13.60;99.90;;;;;;4959902;28;20163;-57
2022/10/28 07:10:03;;;;;;;25.38;15.65;;;13.40;99.90;;;;;;4978877;28;20055;-57
2022/10/28 07:12:28;;;;;;;24.63;14.98;;;13.40;99.90;;;;;;4977670;28;20163;-57
2022/10/28 07:14:54;;;;;;;22.77;14.65;;;13.30;99.90;;;;;;4978012;28;20039;-57
2022/10/28 07:17:20;;;;;;;30.10;16.08;;;13.80;99.90;;;;;;4978766;28;20039;-57
2022/10/28 07:19:45;;;;;;;26.23;14.35;;;13.60;99.90;;;;;;4977168;28;20133;-57
2022/10/28 07:22:11;;;;;;;25.30;14.90;;;13.80;99.90;;;;;;4978394;28;20324;-57
2022/10/28 07:24:36;;;;;;;25.60;15.48;;;13.90;99.90;;;;;;4975408;28;20129;-57
2022/10/28 07:27:02;;;;;;;24.75;14.40;;;13.60;99.90;;;;;;4978153;28;20058;-57
2022/10/28 07:29:28;;;;;;;24.70;13.80;;;13.80;99.90;;;;;;4977067;28;20529;-58
2022/10/28 07:31:54;;;;;;;24.17;15.07;;;14.00;99.90;;;;;;4976699;28;20055;-58
2022/10/28 07:34:20;;;;;;;25.48;14.00;;;14.00;99.90;;;;;;4977243;28;20058;-57
2022/10/28 07:36:50;;;;;;;20.65;13.07;;;13.90;99.90;;;;;;4976875;28;20103;-58
2022/10/28 07:39:16;;;;;;;24.52;14.48;;;13.80;99.90;;;;;;4975522;28;20054;-57
2022/10/28 07:41:41;;;;;;;22.25;13.18;;;14.20;99.90;;;;;;4958642;28;20050;-58
2022/10/28 07:44:07;;;;;;;21.45;12.63;;;14.20;99.90;;;;;;4977472;28;20122;-57
2022/10/28 07:46:33;;;;;;;24.30;13.45;;;14.10;99.90;;;;;;4977021;28;20089;-57
2022/10/28 07:48:59;;;;;;;20.23;12.52;;;14.00;99.90;;;;;;4977790;28;20050;-58
2022/10/28 07:51:25;;;;;;;21.75;11.38;;;14.20;99.90;;;;;;4976749;28;20138;-58
2022/10/28 07:53:51;;;;;;;19.42;12.20;;;14.30;99.90;;;;;;4976194;28;20115;-58
2022/10/28 07:56:17;;;;;;;21.00;11.77;;;14.60;99.90;;;;;;4977283;28;20083;-57
2022/10/28 07:58:43;;;;;;;19.80;12.40;;;14.40;99.90;;;;;;4976584;28;20055;-58
2022/10/28 08:01:13;;;;;;;22.35;11.60;;;14.70;99.90;;;;;;4978466;28;20047;-57
2022/10/28 08:03:39;;;;;;;22.98;11.48;;;14.60;99.90;;;;;;4976378;28;20426;-57
2022/10/28 08:06:11;;;;;;;21.67;11.10;;;14.50;99.90;;;;;;4977327;28;20050;-57
2022/10/28 08:08:37;;;;;;;22.55;11.25;;;14.60;99.90;;;;;;4977239;28;20082;-56
2022/10/28 08:11:13;;;;;;;21.10;10.93;;;15.00;99.90;;;;;;4976766;28;20057;-57
2022/10/28 08:13:39;;;;;;;23.60;11.50;;;15.00;99.90;;;;;;4977888;28;20054;-57
2022/10/28 08:16:06;;;;;;;20.63;11.18;;;14.90;99.90;;;;;;4991188;28;20058;-57
2022/10/28 08:18:32;;;;;;;19.10;11.10;;;15.00;99.90;;;;;;4977906;28;20039;-58
2022/10/28 08:20:59;;;;;;;19.05;11.00;;;15.00;99.90;;;;;;4976477;28;20057;-57
2022/10/28 08:23:26;;;;;;;19.52;10.00;;;15.00;99.90;;;;;;4977200;28;20035;-57
2022/10/28 08:25:52;;;;;;;21.52;10.38;;;15.30;99.90;;;;;;4977203;28;20043;-58
2022/10/28 08:28:18;;;;;;;21.05;10.60;;;15.30;99.90;;;;;;4976448;28;20057;-58
2022/10/28 08:30:45;;;;;;;16.92;9.70;;;15.00;99.90;;;;;;4977799;28;20043;-58
2022/10/28 08:33:11;;;;;;;17.83;9.75;;;15.10;99.90;;;;;;4974880;28;20061;-58
2022/10/28 08:35:36;;;;;;;16.20;9.45;;;15.50;99.90;;;;;;4977410;28;20035;-58
2022/10/28 08:38:03;;;;;;;16.52;9.23;;;15.20;99.90;;;;;;4976624;28;20062;-58
2022/10/28 08:40:41;;;;;;;19.75;9.75;;;15.30;99.90;;;;;;4959397;28;20460;-58
2022/10/28 08:43:32;;;;;;;16.98;9.30;;;15.60;99.90;;;;;;4977539;28;20058;-58
2022/10/28 08:46:10;;;;;;;17.47;10.53;;;15.50;99.90;;;;;;4938047;28;20058;-58
2022/10/28 08:48:36;;;;;;;18.90;9.20;;;15.60;99.90;;;;;;4978931;28;20050;-58
2022/10/28 08:51:39;;;;;;;15.05;8.32;;;15.80;99.90;;;;;;4979595;28;20039;-57
2022/10/28 08:54:13;;;;;;;19.80;8.63;;;15.70;99.90;;;;;;4978300;28;20063;-58
2022/10/28 08:56:44;;;;;;;18.75;9.02;;;15.80;99.90;;;;;;4980488;28;20042;-58
2022/10/28 09:05:48;;;;;;;16.52;8.90;;;15.80;99.90;;;;;;5574138;23;20795;-48
2022/10/28 09:08:24;;;;;;;19.15;8.60;;;15.80;99.90;;;;;;5347917;23;20056;-51
2022/10/28 09:11:25;;;;;;;16.73;8.93;;;15.90;99.90;;;;;;5266907;23;20067;-62
2022/10/28 09:14:03;;;;;;;16.42;8.95;;;15.80;99.90;;;;;;4930451;29;20084;-62
2022/10/28 09:16:53;;;;;;;12.73;7.88;;;15.90;99.90;;;;;;4938945;29;20058;-61
2022/10/28 09:19:39;;;;;;;12.88;7.63;;;15.90;99.90;;;;;;4932442;29;20044;-63
2022/10/28 09:22:21;;;;;;;16.85;8.20;;;15.90;99.90;;;;;;4925681;29;20047;-63
2022/10/28 09:25:02;;;;;;;16.48;8.45;;;16.00;99.90;;;;;;4939713;29;20148;-64
2022/10/28 09:27:43;;;;;;;18.13;9.02;;;16.00;99.90;;;;;;4939219;29;20082;-63
2022/10/28 09:30:16;;;;;;;16.70;9.00;;;15.90;99.90;;;;;;4922203;29;20050;-63
2022/10/28 09:32:57;;;;;;;15.93;8.75;;;15.90;99.90;;;;;;4939680;29;20051;-63
2022/10/28 09:35:27;;;;;;;17.70;7.85;;;16.30;99.90;;;;;;4938723;29;20052;-64
2022/10/28 09:38:13;;;;;;;17.48;8.95;;;16.20;99.90;;;;;;4922744;29;20075;-63
2022/10/28 09:40:42;;;;;;;17.08;9.00;;;16.30;99.90;;;;;;4939254;29;20588;-63
2022/10/28 09:43:42;;;;;;;18.33;9.20;;;16.30;99.90;;;;;;4938953;29;20490;-63
2022/10/28 09:46:16;;;;;;;16.38;8.57;;;16.00;99.90;;;;;;4922893;29;20064;-62
2022/10/28 09:48:50;;;;;;;17.63;7.95;;;16.10;99.90;;;;;;4939159;29;20055;-63
2022/10/28 09:51:34;;;;;;;14.88;8.30;;;16.30;99.90;;;;;;4939184;29;20087;-63
2022/10/28 09:54:00;;;;;;;16.65;8.52;;;16.10;99.90;;;;;;4939717;29;20081;-64
2022/10/28 09:56:27;;;;;;;16.50;7.93;;;16.00;99.90;;;;;;4938931;29;20048;-63
2022/10/28 09:58:56;;;;;;;16.58;8.20;;;16.40;99.90;;;;;;4939505;29;20586;-65
2022/10/28 10:01:21;;;;;;;15.88;8.88;;;16.20;99.90;;;;;;4934434;29;20087;-63
2022/10/28 10:03:49;;;;;;;14.05;7.80;;;16.40;99.90;;;;;;4912527;29;20044;-65
2022/10/28 10:06:28;;;;;;;20.60;10.23;;;16.20;99.90;;;;;;4933837;29;20165;-63
2022/10/28 10:08:55;;;;;;;15.90;8.80;;;16.50;99.90;;;;;;4925265;29;20043;-64
2022/10/28 10:11:33;;;;;;;15.25;8.20;;;16.60;99.90;;;;;;4942170;29;20055;-64
2022/10/28 10:14:05;;;;;;;14.65;8.25;;;16.60;99.90;;;;;;4942353;29;20055;-63
2022/10/28 10:16:43;;;;;;;;;;;16.70;99.90;;;;;;4942448;29;20067;-64
2022/10/28 10:19:10;;;;;;;19.10;7.75;;;16.50;99.90;;;;;;4942722;29;19923;-63
2022/10/28 10:21:43;;;;;;;13.38;7.43;;;16.60;99.90;;;;;;4942242;29;20134;-64
2022/10/28 10:24:32;;;;;;;15.25;7.30;;;16.80;99.90;;;;;;4942647;29;20051;-64
2022/10/28 10:27:28;;;;;;;14.35;7.55;;;16.80;99.90;;;;;;4935602;29;20059;-61
2022/10/28 10:29:55;;;;;;;13.95;7.13;;;16.80;99.90;;;;;;4909033;29;20067;-63
2022/10/28 10:32:30;;;;;;;17.92;7.45;;;16.70;99.90;;;;;;4925836;29;20040;-63
2022/10/28 10:35:05;;;;;;;13.55;6.97;;;16.70;99.90;;;;;;4926205;29;20063;-63
2022/10/28 10:37:34;;;;;;;14.32;7.05;;;17.10;99.90;;;;;;4927096;29;20412;-63
2022/10/28 10:40:16;;;;;;;16.52;7.15;;;17.00;99.90;;;;;;4926254;29;20043;-63
2022/10/28 10:42:42;;;;;;;13.45;6.57;;;17.00;99.90;;;;;;4922489;29;20056;-63
2022/10/28 10:45:17;;;;;;;16.27;6.95;;;17.20;99.90;;;;;;4923307;29;20076;-63
2022/10/28 10:47:43;;;;;;;14.27;6.72;;;17.20;99.90;;;;;;4940358;29;20074;-62
2022/10/28 10:50:20;;;;;;;15.77;6.75;;;17.20;99.90;;;;;;4942332;29;20059;-63
2022/10/28 10:52:55;;;;;;;16.90;8.02;;;17.40;99.90;;;;;;4944432;29;20146;-63
2022/10/28 10:55:37;;;;;;;14.90;7.30;;;17.50;99.90;;;;;;4943806;29;20442;-62
2022/10/28 10:58:04;;;;;;;15.07;6.78;;;17.60;99.90;;;;;;4944468;29;20111;-63
2022/10/28 11:00:36;;;;;;;15.50;6.93;;;17.60;99.90;;;;;;4944125;29;20062;-64
2022/10/28 11:03:05;;;;;;;14.85;7.03;;;17.60;99.90;;;;;;4944971;29;20040;-63
2022/10/28 11:05:32;;;;;;;17.17;6.43;;;17.50;99.90;;;;;;4944460;29;20075;-63
2022/10/28 11:08:03;;;;;;;17.25;6.63;;;17.50;99.90;;;;;;4945641;29;20060;-63
2022/10/28 11:10:31;;;;;;;17.20;7.30;;;17.70;99.90;;;;;;4944884;29;20135;-62
2022/10/28 11:13:01;;;;;;;16.45;6.82;;;17.70;99.90;;;;;;4944686;29;20047;-63
2022/10/28 11:15:29;;;;;;;15.40;6.43;;;17.80;99.90;;;;;;4945132;29;20043;-63
2022/10/28 11:18:19;;;;;;;14.70;6.90;;;17.90;99.90;;;;;;4942933;29;20062;-63
2022/10/28 11:21:18;;;;;;;14.68;7.68;;;17.80;99.90;;;;;;4945148;29;20131;-63
2022/10/28 11:24:07;;;;;;;13.32;6.78;;;18.10;99.90;;;;;;4944898;29;20039;-62
2022/10/28 11:26:41;;;;;;;17.30;6.63;;;18.10;99.90;;;;;;4944385;29;20087;-63
2022/10/28 11:29:13;;;;;;;18.00;5.97;;;18.30;99.90;;;;;;4945092;29;20048;-64
2022/10/28 11:31:45;;;;;;;15.27;6.95;;;18.40;99.90;;;;;;4941031;29;20419;-62
2022/10/28 11:34:58;;;;;;;14.38;6.22;;;18.50;99.90;;;;;;4924682;29;20158;-62
2022/10/28 11:37:46;;;;;;;15.43;6.10;;;18.40;99.90;;;;;;4877696;29;20065;-62
2022/10/28 11:40:37;;;;;;;13.20;6.13;;;18.40;99.90;;;;;;4920458;29;20056;-63
2022/10/28 11:43:05;;;;;;;14.70;5.90;;;18.50;99.90;;;;;;4926098;29;20115;-63
2022/10/28 11:45:44;;;;;;;16.48;6.30;;;18.50;99.90;;;;;;4928802;29;20048;-63
2022/10/28 11:48:37;;;;;;;18.88;6.45;;;18.50;99.90;;;;;;4929762;29;20048;-62
2022/10/28 11:51:18;;;;;;;17.90;6.60;;;18.50;99.90;;;;;;4929707;29;20051;-62
2022/10/28 11:54:04;;;;;;;13.45;5.82;;;18.60;99.90;;;;;;4928185;29;20068;-64
2022/10/28 11:56:38;;;;;;;16.05;5.97;;;18.70;99.90;;;;;;4926843;29;20108;-62
2022/10/28 11:59:58;;;;;;;20.58;6.68;;;18.80;99.90;;;;;;4933730;29;20067;-62
2022/10/28 12:02:29;;;;;;;14.27;6.15;;;18.80;99.90;;;;;;4883661;29;20113;-62
2022/10/28 12:05:17;;;;;;;16.93;6.47;;;18.80;99.90;;;;;;4932731;29;20083;-61
2022/10/28 12:08:02;;;;;;;16.10;6.05;;;18.80;99.90;;;;;;4916115;29;20064;-62
2022/10/28 12:10:54;;;;;;;15.07;5.88;;;18.90;99.90;;;;;;4943251;29;20055;-62
2022/10/28 12:13:43;;;;;;;16.23;6.18;;;18.90;99.90;;;;;;4943420;29;20063;-63
2022/10/28 12:16:41;;;;;;;12.57;5.28;;;18.90;99.90;;;;;;4944251;29;20495;-62
2022/10/28 12:19:28;;;;;;;14.80;5.60;;;18.90;99.90;;;;;;4917196;29;20595;-62
2022/10/28 12:22:22;;;;;;;19.40;5.55;;;19.00;99.90;;;;;;4934187;29;20044;-62
2022/10/28 12:24:49;;;;;;;15.13;5.47;;;18.90;99.90;;;;;;4931331;29;20119;-62
2022/10/28 12:27:22;;;;;;;17.60;6.63;;;18.80;99.90;;;;;;4930920;29;20538;-61
2022/10/28 12:29:53;;;;;;;16.15;6.38;;;18.70;99.90;;;;;;4933141;29;20497;-62
2022/10/28 12:32:23;;;;;;;14.70;5.27;;;18.80;99.90;;;;;;4934141;29;20047;-62
2022/10/28 12:35:00;;;;;;;16.73;5.70;;;18.60;99.90;;;;;;4935237;29;20802;-62
2022/10/28 12:37:56;;;;;;;20.65;6.85;;;18.70;99.90;;;;;;4932706;29;20079;-62
2022/10/28 12:40:25;;;;;;;14.35;5.75;;;18.70;99.90;;;;;;4911100;29;20055;-62
2022/10/28 12:43:13;;;;;;;15.10;5.93;;;18.70;99.90;;;;;;4933267;29;20048;-62
2022/10/28 12:45:41;;;;;;;16.23;5.63;;;18.70;99.90;;;;;;4935313;29;20135;-62
2022/10/28 12:48:22;;;;;;;12.98;5.97;;;18.60;99.90;;;;;;4942722;29;20071;-62
2022/10/28 12:50:53;;;;;;;11.77;5.82;;;18.60;99.90;;;;;;4943715;29;20120;-62
2022/10/28 12:53:34;;;;;;;15.13;5.90;;;18.70;99.90;;;;;;4943336;29;20054;-62
2022/10/28 12:56:02;;;;;;;14.00;5.57;;;18.70;99.90;;;;;;4942730;29;20411;-62
2022/10/28 12:58:40;;;;;;;15.70;6.30;;;18.60;99.90;;;;;;4926050;29;20066;-62
2022/10/28 13:01:15;;;;;;;15.25;5.65;;;18.70;99.90;;;;;;4942805;29;20052;-62